Terminal Aerodrome Forecast
Issued by NWS Cleveland, OH

Home | Current Version | Previous Version | Text Only | Print | Product List | Glossary On
Versions: 1 2 3 4 5 6 7 8 9 10 11 12
000
FTUS41 KCLE 121700
TAFTOL
TAF
KTOL 121730Z 1218/1318 21010KT P6SM SCT100 OVC200
     FM122200 22008KT P6SM BKN050 OVC100
     FM130500 24010KT P6SM VCTS SCT025 OVC050CB
      TEMPO 1306/1309 VRB15G35KT 2SM TSRA BR SCT015 OVC025CB
     FM131000 23010KT 6SM -SHRA BKN035 OVC100
     FM131500 26010KT P6SM BKN100 OVC200=

USA.gov is the U.S. government's official web portal to all federal, state and local government web resources and services.